Time;durP1;ratioP1;P1;durP2;ratioP2;P2;SDS_P1;SDS_P2;PMS_P1;PMS_P2;Temp;Humidity;BMP_temperature;BMP_pressure;BME280_temperature;BME280_humidity;BME280_pressure;Samples;Min_cycle;Max_cycle;Signal;HPM_P1;HPM_P2
2021/09/21 00:02:17;;;;;;;20.50;9.57;;;6.40;99.90;;;;;;4425087;32;20437;-63
2021/09/21 00:04:44;;;;;;;15.10;9.00;;;6.40;99.90;;;;;;4423591;32;20183;-63
2021/09/21 00:07:29;;;;;;;18.50;9.67;;;6.40;99.90;;;;;;4423307;32;20468;-63
2021/09/21 00:09:58;;;;;;;18.53;9.53;;;6.50;99.90;;;;;;4423578;32;20409;-63
2021/09/21 00:12:25;;;;;;;19.53;9.83;;;6.40;99.90;;;;;;4423297;32;20506;-63
2021/09/21 00:15:15;;;;;;;18.07;9.87;;;6.40;99.90;;;;;;4422953;32;20219;-64
2021/09/21 00:18:00;;;;;;;18.77;10.00;;;6.50;99.90;;;;;;4424842;32;20173;-63
2021/09/21 00:20:32;;;;;;;19.13;9.90;;;6.50;99.90;;;;;;4422924;32;20131;-63
2021/09/21 00:23:02;;;;;;;16.50;9.07;;;6.40;99.90;;;;;;4423708;32;20145;-63
2021/09/21 00:25:44;;;;;;;21.23;9.67;;;6.50;99.90;;;;;;4423871;32;20150;-63
2021/09/21 00:28:37;;;;;;;18.87;10.00;;;6.40;99.90;;;;;;4390274;32;20550;-64
2021/09/21 00:31:22;;;;;;;16.50;9.67;;;6.50;99.90;;;;;;4392269;32;20163;-64
2021/09/21 00:34:12;;;;;;;19.03;9.93;;;6.50;99.90;;;;;;4390469;32;20140;-64
2021/09/21 00:37:11;;;;;;;18.17;9.80;;;6.50;99.90;;;;;;4390565;32;20167;-63
2021/09/21 00:39:56;;;;;;;19.37;9.53;;;6.50;99.90;;;;;;4389887;32;20250;-64
2021/09/21 00:42:43;;;;;;;16.87;10.27;;;6.50;99.90;;;;;;4389941;32;20181;-63
2021/09/21 00:45:29;;;;;;;18.97;10.30;;;6.50;99.90;;;;;;4392202;32;20177;-63
2021/09/21 00:48:15;;;;;;;18.40;9.47;;;6.50;99.90;;;;;;4391866;32;20230;-64
2021/09/21 00:50:59;;;;;;;23.17;9.87;;;6.50;99.90;;;;;;4361862;33;20493;-63
2021/09/21 00:53:48;;;;;;;18.43;10.33;;;6.50;99.90;;;;;;4360555;33;20305;-64
2021/09/21 00:56:39;;;;;;;18.23;10.13;;;6.50;99.90;;;;;;4361740;33;20176;-63
2021/09/21 00:59:22;;;;;;;19.20;10.07;;;6.50;99.90;;;;;;4375302;32;20209;-63
2021/09/21 01:02:24;;;;;;;18.67;10.30;;;6.50;99.90;;;;;;4391224;32;20590;-63
2021/09/21 01:05:22;;;;;;;19.27;9.93;;;6.50;99.90;;;;;;4390853;32;20198;-63
2021/09/21 01:08:10;;;;;;;18.23;10.33;;;6.50;99.90;;;;;;4392578;32;20167;-63
2021/09/21 01:10:48;;;;;;;18.17;10.43;;;6.40;99.90;;;;;;4390669;32;20166;-62
2021/09/21 01:13:23;;;;;;;21.37;10.97;;;6.40;99.90;;;;;;4391046;32;20195;-64
2021/09/21 01:16:07;;;;;;;23.87;11.20;;;6.40;99.90;;;;;;4392638;32;20174;-63
2021/09/21 01:18:55;;;;;;;21.57;11.17;;;6.40;99.90;;;;;;4391280;32;20134;-63
2021/09/21 01:21:36;;;;;;;19.40;10.30;;;6.40;99.90;;;;;;4403544;32;20178;-63
2021/09/21 01:27:43;;;;;;;21.70;11.23;;;6.40;99.90;;;;;;4425245;32;20361;-63
2021/09/21 01:30:25;;;;;;;21.20;10.87;;;6.40;99.90;;;;;;4424722;32;20236;-63
2021/09/21 01:33:22;;;;;;;22.07;11.20;;;6.30;99.90;;;;;;4425153;32;20173;-64
2021/09/21 01:36:12;;;;;;;21.67;11.17;;;6.40;99.90;;;;;;4424901;32;20225;-63
2021/09/21 01:39:05;;;;;;;22.77;11.30;;;6.30;99.90;;;;;;4425182;32;20174;-66
2021/09/21 01:42:02;;;;;;;21.80;10.63;;;6.30;99.90;;;;;;4427468;32;20445;-63
2021/09/21 01:44:45;;;;;;;22.50;11.07;;;6.30;99.90;;;;;;4425833;32;20463;-63
2021/09/21 01:47:25;;;;;;;21.23;10.80;;;6.30;99.90;;;;;;4427294;32;20484;-63
2021/09/21 02:05:13;;;;;;;22.77;11.20;;;6.10;99.90;;;;;;4320668;33;20136;-63
2021/09/21 02:07:44;;;;;;;20.70;10.53;;;6.10;99.90;;;;;;4320020;33;20196;-64
2021/09/21 02:10:20;;;;;;;20.20;10.63;;;6.10;99.90;;;;;;4320660;33;20154;-64
2021/09/21 02:13:10;;;;;;;20.57;11.37;;;6.10;99.90;;;;;;4318672;33;20171;-63
2021/09/21 02:15:50;;;;;;;21.47;11.43;;;6.20;99.90;;;;;;4320474;33;20229;-64
2021/09/21 02:18:32;;;;;;;23.87;11.53;;;6.20;99.90;;;;;;4318800;33;20561;-63
2021/09/21 02:21:28;;;;;;;20.10;10.33;;;6.10;99.90;;;;;;4317293;33;20247;-64
2021/09/21 02:24:09;;;;;;;20.43;11.00;;;6.20;99.90;;;;;;4320276;33;20148;-63
2021/09/21 02:27:08;;;;;;;22.40;11.03;;;6.20;99.90;;;;;;4317055;33;20179;-64
2021/09/21 02:29:55;;;;;;;21.60;10.77;;;6.20;99.90;;;;;;4320316;33;20166;-64
2021/09/21 02:32:36;;;;;;;19.60;10.60;;;6.20;99.90;;;;;;4318935;33;20143;-63
2021/09/21 02:35:35;;;;;;;20.50;10.90;;;6.20;99.90;;;;;;4320109;33;20573;-63
2021/09/21 02:38:31;;;;;;;21.63;10.80;;;6.20;99.90;;;;;;4383424;32;20208;-64
2021/09/21 02:41:31;;;;;;;23.10;10.67;;;6.20;99.90;;;;;;4426975;32;20343;-64
2021/09/21 02:44:01;;;;;;;19.30;10.23;;;6.20;99.90;;;;;;4425010;32;20188;-63
2021/09/21 02:47:19;;;;;;;20.00;10.37;;;6.10;99.90;;;;;;4378796;32;20143;-63
2021/09/21 02:49:59;;;;;;;21.03;9.97;;;6.10;99.90;;;;;;4376506;32;20172;-63
2021/09/21 02:52:34;;;;;;;21.77;10.17;;;6.10;99.90;;;;;;4378547;32;20518;-63
2021/09/21 02:55:19;;;;;;;21.40;10.73;;;6.10;99.90;;;;;;4378892;32;20464;-63
2021/09/21 02:58:10;;;;;;;19.60;9.93;;;6.10;99.90;;;;;;4378561;32;20732;-63
2021/09/21 03:00:55;;;;;;;20.80;11.13;;;6.00;99.90;;;;;;4376857;32;20143;-63
2021/09/21 03:03:42;;;;;;;22.63;11.13;;;6.10;99.90;;;;;;4378709;32;20524;-63
2021/09/21 03:06:50;;;;;;;20.97;10.00;;;6.00;99.90;;;;;;4376904;32;20160;-63
2021/09/21 03:18:18;;;;;;;20.37;10.23;;;5.90;99.90;;;;;;4425351;32;20180;-63
2021/09/21 03:20:56;;;;;;;18.10;9.53;;;5.90;99.90;;;;;;4426311;32;20236;-62
2021/09/21 03:24:00;;;;;;;21.10;10.20;;;5.90;99.90;;;;;;4425765;32;20567;-63
2021/09/21 03:26:50;;;;;;;18.33;9.83;;;5.90;99.90;;;;;;4424426;32;20405;-63
2021/09/21 03:29:23;;;;;;;17.77;9.57;;;5.90;99.90;;;;;;4424161;32;20289;-63
2021/09/21 03:32:32;;;;;;;20.37;9.80;;;5.90;99.90;;;;;;4426158;32;20140;-63
2021/09/21 03:35:31;;;;;;;21.70;10.23;;;5.90;99.90;;;;;;4419749;32;20239;-63
2021/09/21 03:38:15;;;;;;;17.87;9.97;;;5.80;99.90;;;;;;4424093;32;20578;-63
2021/09/21 03:41:06;;;;;;;18.23;10.40;;;5.80;99.90;;;;;;4426051;32;20480;-63
2021/09/21 03:43:33;;;;;;;19.70;10.37;;;5.80;99.90;;;;;;4426283;32;20520;-63
2021/09/21 03:46:00;;;;;;;23.07;10.47;;;5.70;99.90;;;;;;4425355;32;20186;-63
2021/09/21 03:48:26;;;;;;;18.70;10.50;;;5.70;99.90;;;;;;4424097;32;20130;-64
2021/09/21 03:50:53;;;;;;;19.23;10.37;;;5.70;99.90;;;;;;4423869;32;20482;-63
2021/09/21 03:53:20;;;;;;;21.67;10.63;;;5.70;99.90;;;;;;4424157;32;20179;-63
2021/09/21 03:55:47;;;;;;;20.40;10.47;;;5.70;99.90;;;;;;4424278;32;20446;-64
2021/09/21 03:58:13;;;;;;;18.40;9.80;;;5.70;99.90;;;;;;4424126;32;20166;-64
2021/09/21 04:00:40;;;;;;;19.17;9.73;;;5.70;99.90;;;;;;4423944;32;20183;-63
2021/09/21 04:03:07;;;;;;;18.37;10.57;;;5.70;99.90;;;;;;4425401;32;20380;-64
2021/09/21 04:05:34;;;;;;;20.53;10.33;;;5.60;99.90;;;;;;4424180;32;20133;-64
2021/09/21 04:08:01;;;;;;;20.20;10.50;;;5.60;99.90;;;;;;4425187;32;20423;-64
2021/09/21 04:10:27;;;;;;;19.93;10.77;;;5.60;99.90;;;;;;4424634;32;20181;-64
2021/09/21 04:12:54;;;;;;;20.17;10.40;;;5.60;99.90;;;;;;4423781;32;20548;-64
2021/09/21 04:15:21;;;;;;;20.90;10.60;;;5.60;99.90;;;;;;4425471;32;20139;-63
2021/09/21 04:17:55;;;;;;;18.53;10.27;;;5.60;99.90;;;;;;4424440;32;20147;-63
2021/09/21 04:20:49;;;;;;;20.93;10.37;;;5.60;99.90;;;;;;4423939;32;20492;-64
2021/09/21 04:23:21;;;;;;;22.57;10.50;;;5.60;99.90;;;;;;4425579;32;20399;-63
2021/09/21 04:26:16;;;;;;;19.97;10.00;;;5.60;99.90;;;;;;4423821;32;20149;-63
2021/09/21 04:29:30;;;;;;;21.90;10.80;;;5.50;99.90;;;;;;4424008;32;20463;-64
2021/09/21 04:32:20;;;;;;;19.50;10.50;;;5.60;99.90;;;;;;4425710;32;20497;-64
2021/09/21 04:35:29;;;;;;;19.87;10.40;;;5.60;99.90;;;;;;4423895;32;20183;-63
2021/09/21 04:41:12;;;;;;;23.77;10.73;;;5.60;99.90;;;;;;4424853;32;20181;-64
2021/09/21 04:44:03;;;;;;;20.17;10.40;;;5.50;99.90;;;;;;4424810;32;20160;-63
2021/09/21 04:46:44;;;;;;;18.93;11.10;;;5.50;99.90;;;;;;4423725;32;20143;-63
2021/09/21 04:49:20;;;;;;;22.87;11.23;;;5.60;99.90;;;;;;4425238;32;20181;-64
2021/09/21 04:52:41;;;;;;;22.67;11.40;;;5.60;99.90;;;;;;4423538;32;20173;-63
2021/09/21 04:55:49;;;;;;;22.27;11.30;;;5.60;99.90;;;;;;4425241;32;20189;-64
2021/09/21 04:58:55;;;;;;;21.27;11.20;;;5.60;99.90;;;;;;4423581;32;20153;-63
2021/09/21 05:01:55;;;;;;;23.50;11.47;;;5.60;99.90;;;;;;4417630;32;20184;-63
2021/09/21 05:04:56;;;;;;;21.43;10.63;;;5.60;99.90;;;;;;4408336;32;20130;-63
2021/09/21 05:07:32;;;;;;;24.17;10.87;;;5.60;99.90;;;;;;4407556;32;20150;-64
2021/09/21 05:10:10;;;;;;;21.67;11.03;;;5.60;99.90;;;;;;4409845;32;20228;-63
2021/09/21 05:13:00;;;;;;;22.30;11.93;;;5.70;99.90;;;;;;4410042;32;20135;-63
2021/09/21 05:15:51;;;;;;;21.50;11.63;;;5.70;99.90;;;;;;4411287;32;20212;-65
2021/09/21 05:18:52;;;;;;;23.23;11.90;;;5.70;99.90;;;;;;4412289;32;20172;-64
2021/09/21 05:21:43;;;;;;;20.70;11.07;;;5.80;99.90;;;;;;4378624;32;20504;-64
2021/09/21 05:25:11;;;;;;;20.77;10.97;;;5.80;99.90;;;;;;4379854;32;20211;-64
2021/09/21 05:27:52;;;;;;;22.73;11.67;;;5.80;99.90;;;;;;4318838;33;20165;-64
2021/09/21 05:30:48;;;;;;;21.63;11.07;;;5.80;99.90;;;;;;4320787;33;20438;-65
2021/09/21 05:33:26;;;;;;;19.73;10.87;;;5.90;99.90;;;;;;4321032;33;20176;-65
2021/09/21 05:36:05;;;;;;;20.53;10.60;;;6.00;99.90;;;;;;4319403;33;20212;-63
2021/09/21 05:38:48;;;;;;;19.10;10.43;;;6.00;99.90;;;;;;4320822;33;20189;-64
2021/09/21 05:41:28;;;;;;;19.17;10.50;;;6.00;99.90;;;;;;4321255;33;20768;-64
2021/09/21 05:44:24;;;;;;;18.67;10.97;;;6.10;99.90;;;;;;4319598;33;20168;-64
2021/09/21 05:47:55;;;;;;;19.57;10.70;;;6.20;99.90;;;;;;4320854;33;20169;-65
2021/09/21 05:50:28;;;;;;;19.57;10.50;;;6.30;99.90;;;;;;4249943;33;20525;-63
2021/09/21 05:52:57;;;;;;;18.60;10.43;;;6.30;99.90;;;;;;4249770;33;20191;-65
2021/09/21 05:56:17;;;;;;;18.17;10.37;;;6.40;99.90;;;;;;4233481;34;20252;-64
2021/09/21 05:59:19;;;;;;;18.53;10.47;;;6.40;99.90;;;;;;4208309;34;20283;-64
2021/09/21 06:02:01;;;;;;;17.90;9.80;;;6.60;99.90;;;;;;4199984;34;20177;-64
2021/09/21 06:04:41;;;;;;;17.60;9.63;;;6.80;99.90;;;;;;4209995;33;20608;-64
2021/09/21 06:07:19;;;;;;;18.63;10.13;;;6.90;99.90;;;;;;4236182;33;20155;-64
2021/09/21 06:09:56;;;;;;;21.60;9.57;;;6.90;99.90;;;;;;4237411;33;20171;-64
2021/09/21 06:12:36;;;;;;;16.87;9.27;;;7.00;99.90;;;;;;4236282;33;20303;-64
2021/09/21 06:15:09;;;;;;;14.53;8.83;;;7.00;99.90;;;;;;4234897;33;20678;-64
2021/09/21 06:17:37;;;;;;;17.17;9.03;;;7.10;99.90;;;;;;4236679;33;20204;-64
2021/09/21 06:20:25;;;;;;;16.33;8.47;;;7.20;99.90;;;;;;4234558;34;20540;-64
2021/09/21 06:23:18;;;;;;;16.00;8.83;;;7.50;99.90;;;;;;4234350;33;20494;-64
2021/09/21 06:26:01;;;;;;;15.23;8.50;;;7.50;99.90;;;;;;4252637;33;20195;-64
2021/09/21 06:28:34;;;;;;;14.70;8.43;;;7.70;99.90;;;;;;4333857;33;20260;-63
2021/09/21 06:31:45;;;;;;;14.10;7.77;;;7.90;99.90;;;;;;4332036;33;20202;-63
2021/09/21 06:34:27;;;;;;;18.63;7.77;;;7.80;99.90;;;;;;4333229;32;20149;-64
2021/09/21 06:37:13;;;;;;;14.43;7.67;;;7.90;99.90;;;;;;4378813;32;20165;-64
2021/09/21 06:40:06;;;;;;;14.97;8.00;;;7.90;99.90;;;;;;4378640;32;20138;-65
2021/09/21 06:42:53;;;;;;;13.67;7.87;;;8.00;99.90;;;;;;4318229;33;20192;-65
2021/09/21 06:45:25;;;;;;;13.13;7.03;;;8.10;99.90;;;;;;4318756;33;20215;-63
2021/09/21 06:48:27;;;;;;;14.43;7.37;;;8.20;99.90;;;;;;4320281;33;20168;-65
2021/09/21 06:51:14;;;;;;;12.13;7.00;;;8.40;99.90;;;;;;4316496;33;20494;-65
2021/09/21 06:54:14;;;;;;;12.07;6.43;;;8.50;99.90;;;;;;4315559;33;20491;-64
2021/09/21 06:56:51;;;;;;;12.17;6.70;;;8.60;99.90;;;;;;4325435;33;20392;-63
2021/09/21 06:59:52;;;;;;;13.93;7.07;;;8.60;99.90;;;;;;4349289;33;20208;-66
2021/09/21 07:03:10;;;;;;;9.07;5.67;;;8.80;99.90;;;;;;4346233;33;20153;-64
2021/09/21 07:05:49;;;;;;;10.47;5.03;;;8.90;99.90;;;;;;4346475;33;20178;-63
2021/09/21 07:08:34;;;;;;;10.07;5.00;;;9.00;99.90;;;;;;4346962;33;20275;-64
2021/09/21 07:11:22;;;;;;;9.57;4.50;;;9.10;99.90;;;;;;4352226;32;20145;-65
2021/09/21 07:14:17;;;;;;;6.53;4.40;;;9.10;99.90;;;;;;4362200;33;20210;-64
2021/09/21 07:17:07;;;;;;;6.73;4.17;;;9.20;99.90;;;;;;4315347;33;20212;-63
2021/09/21 07:19:48;;;;;;;9.13;4.90;;;9.20;99.90;;;;;;4332936;33;20173;-61
2021/09/21 07:22:38;;;;;;;7.23;5.10;;;9.30;99.90;;;;;;4356822;32;20211;-61
2021/09/21 07:25:41;;;;;;;6.93;4.00;;;9.40;99.90;;;;;;4363581;32;20175;-62
2021/09/21 07:28:29;;;;;;;6.57;4.33;;;9.50;99.90;;;;;;4359847;32;20152;-62
2021/09/21 07:31:17;;;;;;;;;;;;;;;;;;;;;
2021/09/21 07:34:06;;;;;;;5.90;3.27;;;9.70;99.90;;;;;;4360331;32;20517;-62
2021/09/21 07:36:57;;;;;;;7.40;4.07;;;9.90;99.90;;;;;;4354817;33;20283;-62
2021/09/21 07:40:00;;;;;;;7.33;4.40;;;10.00;99.90;;;;;;4353154;32;20172;-62
2021/09/21 07:43:13;;;;;;;7.33;4.60;;;10.10;99.90;;;;;;4380161;32;20155;-61
2021/09/21 07:45:54;;;;;;;7.23;4.17;;;10.10;99.90;;;;;;4362513;32;20152;-61
2021/09/21 07:48:40;;;;;;;6.97;4.27;;;10.10;99.90;;;;;;4386561;32;20189;-61
2021/09/21 07:51:41;;;;;;;6.67;4.00;;;10.10;99.90;;;;;;4381778;32;20528;-61
2021/09/21 07:54:49;;;;;;;5.50;3.90;;;10.10;99.90;;;;;;4384324;32;20182;-61
2021/09/21 07:57:41;;;;;;;7.53;4.03;;;10.20;99.90;;;;;;4390321;32;20187;-61
2021/09/21 08:00:32;;;;;;;6.13;4.00;;;10.30;99.90;;;;;;4389541;32;20445;-62
2021/09/21 08:03:12;;;;;;;6.20;3.83;;;10.40;99.90;;;;;;4400852;32;20159;-62
2021/09/21 08:05:57;;;;;;;5.13;3.70;;;10.30;99.90;;;;;;4406550;32;20221;-61
2021/09/21 08:08:39;;;;;;;4.63;3.20;;;10.40;99.90;;;;;;4407440;32;20217;-61
2021/09/21 08:11:19;;;;;;;6.43;3.30;;;10.30;99.90;;;;;;4400052;32;20159;-62
2021/09/21 08:14:24;;;;;;;5.23;3.10;;;10.20;99.90;;;;;;4384520;32;20176;-62
2021/09/21 08:17:19;;;;;;;6.40;3.13;;;10.20;99.90;;;;;;4406898;32;20198;-61
2021/09/21 08:20:58;;;;;;;5.43;3.40;;;10.30;99.90;;;;;;4408165;32;20229;-61
2021/09/21 08:23:54;;;;;;;5.90;3.37;;;10.50;99.90;;;;;;4409896;32;20226;-62
2021/09/21 08:26:46;;;;;;;9.93;3.70;;;10.60;99.90;;;;;;4409712;32;20198;-61
2021/09/21 08:29:21;;;;;;;7.93;3.87;;;10.70;99.90;;;;;;4407946;32;20156;-62
2021/09/21 08:32:06;;;;;;;6.60;3.63;;;10.80;99.90;;;;;;4408354;32;20492;-62
2021/09/21 08:34:56;;;;;;;5.40;3.73;;;10.80;99.90;;;;;;4407348;32;20179;-62
2021/09/21 08:37:33;;;;;;;6.10;3.47;;;10.80;99.90;;;;;;4394287;32;20421;-62
2021/09/21 08:40:20;;;;;;;5.97;3.67;;;10.80;99.90;;;;;;4392293;32;20182;-62
2021/09/21 08:43:11;;;;;;;5.83;3.47;;;10.90;99.90;;;;;;4394652;32;20132;-61
2021/09/21 08:46:01;;;;;;;7.17;3.70;;;10.70;99.90;;;;;;4394685;32;20163;-61
2021/09/21 08:48:48;;;;;;;5.43;3.30;;;10.60;99.90;;;;;;4397577;32;20212;-63
2021/09/21 08:51:54;;;;;;;6.47;3.50;;;10.60;99.90;;;;;;4406908;32;20159;-62
2021/09/21 08:54:39;;;;;;;5.13;3.53;;;10.80;99.90;;;;;;4410964;32;20273;-62
2021/09/21 08:57:26;;;;;;;5.17;3.00;;;11.30;99.90;;;;;;4378182;32;20168;-62
2021/09/21 09:00:13;;;;;;;4.90;3.30;;;12.00;99.90;;;;;;4377980;32;20212;-61
2021/09/21 09:03:24;;;;;;;5.50;3.10;;;12.20;99.90;;;;;;4385023;32;20143;-62
2021/09/21 09:06:50;;;;;;;5.43;3.20;;;12.50;99.90;;;;;;4395104;32;20194;-61
2021/09/21 09:10:05;;;;;;;3.47;2.57;;;12.60;99.90;;;;;;4393772;32;20255;-62
2021/09/21 09:12:54;;;;;;;5.40;2.87;;;13.10;99.90;;;;;;4332485;33;20396;-62
2021/09/21 09:16:02;;;;;;;4.37;2.90;;;13.40;99.90;;;;;;4334710;33;20165;-62
2021/09/21 09:22:29;;;;;;;5.23;2.83;;;13.60;99.90;;;;;;4294194;33;20244;-61
2021/09/21 09:25:08;;;;;;;6.27;2.50;;;13.80;99.90;;;;;;4293800;33;20155;-62
2021/09/21 09:27:48;;;;;;;3.40;2.63;;;13.80;99.90;;;;;;4288506;33;20182;-61
2021/09/21 09:30:26;;;;;;;5.07;2.50;;;13.80;99.90;;;;;;4291752;33;20212;-61
2021/09/21 09:33:09;;;;;;;5.30;2.70;;;13.70;99.90;;;;;;4291112;33;20262;-62
2021/09/21 09:36:11;;;;;;;3.47;2.47;;;13.80;99.90;;;;;;4286769;33;20193;-62
2021/09/21 09:42:11;;;;;;;3.93;2.63;;;14.90;99.90;;;;;;4300363;28;20254;-62
2021/09/21 09:45:36;;;;;;;5.83;2.80;;;14.30;99.90;;;;;;4190662;34;20219;-62
2021/09/21 09:48:20;;;;;;;5.20;2.80;;;14.20;99.90;;;;;;4195461;34;20489;-62
2021/09/21 09:51:24;;;;;;;4.17;2.70;;;14.50;99.90;;;;;;4192494;34;20202;-62
2021/09/21 09:54:20;;;;;;;4.50;2.60;;;14.60;99.90;;;;;;4192287;34;20220;-62
2021/09/21 09:57:25;;;;;;;5.80;2.70;;;14.70;99.90;;;;;;4206536;34;20190;-62
2021/09/21 10:00:25;;;;;;;4.87;2.50;;;14.40;99.90;;;;;;4220735;34;20193;-62
2021/09/21 10:03:40;;;;;;;3.90;2.60;;;14.30;99.90;;;;;;4165433;34;20187;-62
2021/09/21 10:06:24;;;;;;;5.50;2.53;;;14.10;99.90;;;;;;4164794;34;20196;-62
2021/09/21 10:08:57;;;;;;;4.57;2.67;;;13.40;99.90;;;;;;4163944;34;20637;-62
2021/09/21 10:11:53;;;;;;;4.00;2.60;;;13.10;99.90;;;;;;4164618;34;20235;-61
2021/09/21 10:14:44;;;;;;;5.37;2.90;;;13.00;99.90;;;;;;4165524;34;20188;-62
2021/09/21 10:17:37;;;;;;;4.77;3.07;;;13.10;99.90;;;;;;4164339;34;20428;-62
2021/09/21 10:20:23;;;;;;;6.73;3.27;;;13.30;99.90;;;;;;4173549;34;20152;-62
2021/09/21 10:23:27;;;;;;;6.73;3.10;;;13.20;99.90;;;;;;4205450;34;20172;-63
2021/09/21 10:26:51;;;;;;;4.63;3.20;;;13.00;99.90;;;;;;4205434;34;20185;-62
2021/09/21 10:30:09;;;;;;;5.23;3.03;;;13.10;99.90;;;;;;4205315;34;20211;-63
2021/09/21 10:32:59;;;;;;;4.97;3.30;;;13.10;99.90;;;;;;4202407;34;20187;-63
2021/09/21 10:35:54;;;;;;;5.03;3.40;;;13.10;99.90;;;;;;4202506;34;20551;-62
2021/09/21 10:38:36;;;;;;;4.90;3.00;;;13.00;99.90;;;;;;4205755;34;20200;-62
2021/09/21 10:41:44;;;;;;;5.87;2.80;;;13.00;99.90;;;;;;4202979;34;20511;-63
2021/09/21 10:44:37;;;;;;;4.53;2.87;;;13.40;99.90;;;;;;4204886;34;20237;-62
2021/09/21 10:47:40;;;;;;;5.13;3.00;;;14.00;99.90;;;;;;4206295;34;20140;-62
2021/09/21 10:50:43;;;;;;;5.83;3.60;;;14.80;99.90;;;;;;4204537;34;20188;-62
2021/09/21 10:53:44;;;;;;;4.93;3.10;;;16.20;99.90;;;;;;4204881;34;20585;-62
2021/09/21 10:56:41;;;;;;;5.03;3.37;;;17.40;99.90;;;;;;4204388;34;20198;-62
2021/09/21 10:59:41;;;;;;;5.20;3.60;;;18.50;99.90;;;;;;4204168;34;20174;-62
2021/09/21 11:02:24;;;;;;;5.33;3.40;;;18.90;99.90;;;;;;4205562;34;20184;-62
2021/09/21 11:05:18;;;;;;;4.93;3.53;;;19.80;99.90;;;;;;4204058;34;20159;-63
2021/09/21 11:08:30;;;;;;;7.03;3.90;;;19.90;99.90;;;;;;4204110;34;20468;-63
2021/09/21 11:11:18;;;;;;;6.03;4.10;;;19.90;99.90;;;;;;4204993;34;20522;-63
2021/09/21 11:14:00;;;;;;;6.93;4.20;;;19.90;99.70;;;;;;4205657;34;20149;-62
2021/09/21 11:16:52;;;;;;;6.30;4.00;;;19.30;99.30;;;;;;4205523;34;20175;-62
2021/09/21 11:19:42;;;;;;;5.60;3.73;;;18.90;99.90;;;;;;4203676;34;20190;-62
2021/09/21 11:22:26;;;;;;;6.03;3.80;;;19.00;99.90;;;;;;4203966;34;20223;-62
2021/09/21 11:25:12;;;;;;;5.43;3.43;;;18.90;99.70;;;;;;4205761;34;20251;-62
2021/09/21 11:27:51;;;;;;;6.47;3.20;;;18.60;99.90;;;;;;4204173;34;20190;-62
2021/09/21 11:30:54;;;;;;;4.47;3.33;;;18.80;99.90;;;;;;4205034;34;20556;-62
2021/09/21 11:33:34;;;;;;;5.93;3.50;;;19.20;99.60;;;;;;4207471;34;20208;-62
2021/09/21 11:36:17;;;;;;;6.90;3.50;;;20.10;98.40;;;;;;4205914;34;20159;-63
2021/09/21 11:38:59;;;;;;;5.53;3.50;;;20.10;97.10;;;;;;4207533;34;20347;-63
2021/09/21 11:42:01;;;;;;;8.53;4.00;;;19.70;97.40;;;;;;4213071;34;20460;-63
2021/09/21 11:44:52;;;;;;;5.50;3.57;;;18.90;98.10;;;;;;4221229;34;20212;-62
2021/09/21 11:47:49;;;;;;;4.07;2.90;;;19.80;98.60;;;;;;4205082;34;20463;-64
2021/09/21 11:50:33;;;;;;;5.63;3.07;;;19.70;96.40;;;;;;4205571;34;20191;-63
2021/09/21 11:53:24;;;;;;;6.50;3.43;;;19.50;96.70;;;;;;4200899;34;20171;-62
2021/09/21 11:56:27;;;;;;;5.63;3.33;;;19.20;97.90;;;;;;4183152;34;20188;-64
2021/09/21 11:59:04;;;;;;;6.63;2.70;;;18.90;97.30;;;;;;4190854;34;20223;-63
2021/09/21 12:01:42;;;;;;;5.43;3.17;;;17.20;98.30;;;;;;4188886;34;20172;-63
2021/09/21 12:05:02;;;;;;;7.67;3.50;;;16.50;99.90;;;;;;4185320;34;20239;-62
2021/09/21 12:07:44;;;;;;;4.83;3.30;;;15.70;99.90;;;;;;4191173;34;20224;-62
2021/09/21 12:10:34;;;;;;;5.20;3.20;;;15.50;99.90;;;;;;4189296;34;20275;-64
2021/09/21 12:13:19;;;;;;;6.53;3.00;;;15.30;99.90;;;;;;4190855;34;20520;-63
2021/09/21 12:16:11;;;;;;;5.60;3.10;;;15.20;99.90;;;;;;4190768;34;20449;-63
2021/09/21 12:22:07;;;;;;;5.20;2.90;;;14.60;99.90;;;;;;4163266;34;20164;-63
2021/09/21 12:25:14;;;;;;;5.90;3.00;;;14.70;99.90;;;;;;4176983;34;20165;-63
2021/09/21 12:28:11;;;;;;;4.63;2.43;;;14.80;99.90;;;;;;4189858;34;20168;-63
2021/09/21 12:31:09;;;;;;;5.23;2.77;;;14.70;99.90;;;;;;4190873;34;20491;-63
2021/09/21 12:34:29;;;;;;;5.43;2.80;;;14.40;99.90;;;;;;4174431;34;20164;-63
2021/09/21 12:37:05;;;;;;;3.90;2.87;;;14.20;99.90;;;;;;4116961;34;20276;-62
2021/09/21 12:39:37;;;;;;;5.17;2.73;;;14.10;99.90;;;;;;4133058;34;20172;-64
2021/09/21 12:42:13;;;;;;;3.57;2.57;;;14.00;99.90;;;;;;4133987;34;20235;-63
2021/09/21 12:44:44;;;;;;;4.63;3.03;;;14.10;99.90;;;;;;4127789;34;20206;-64
2021/09/21 12:47:21;;;;;;;4.70;2.70;;;14.10;99.90;;;;;;4133826;34;20185;-63
2021/09/21 12:50:01;;;;;;;6.00;2.90;;;14.30;99.90;;;;;;4131456;34;20198;-61
2021/09/21 12:52:35;;;;;;;7.00;3.03;;;14.40;99.90;;;;;;4133330;34;20228;-61
2021/09/21 12:55:39;;;;;;;6.13;2.70;;;14.50;99.90;;;;;;4153993;34;20215;-62
2021/09/21 12:58:26;;;;;;;4.63;3.43;;;14.40;99.90;;;;;;4153417;34;20483;-62
2021/09/21 13:01:15;;;;;;;4.67;2.87;;;14.30;99.90;;;;;;4139552;34;20195;-62
2021/09/21 13:04:19;;;;;;;3.70;2.67;;;14.20;99.90;;;;;;4152585;34;20195;-62
2021/09/21 13:07:08;;;;;;;4.80;2.90;;;14.30;99.90;;;;;;4166881;34;20190;-63
2021/09/21 13:09:57;;;;;;;7.37;3.00;;;14.40;99.90;;;;;;4189508;34;20272;-62
2021/09/21 13:12:31;;;;;;;4.70;3.07;;;14.40;99.90;;;;;;4203523;34;20163;-63
2021/09/21 13:15:34;;;;;;;4.60;3.20;;;14.40;99.90;;;;;;4194081;34;20216;-63
2021/09/21 13:18:07;;;;;;;4.87;2.90;;;14.40;99.90;;;;;;4206246;34;20156;-62
2021/09/21 13:21:04;;;;;;;5.13;3.40;;;14.40;99.90;;;;;;4163425;34;20179;-63
2021/09/21 13:24:13;;;;;;;5.10;3.37;;;14.30;99.90;;;;;;4162695;34;20300;-64
2021/09/21 13:26:56;;;;;;;7.20;3.50;;;14.20;99.90;;;;;;4123332;34;20186;-62
2021/09/21 13:29:27;;;;;;;5.87;3.40;;;14.00;99.90;;;;;;4122678;34;20246;-64
2021/09/21 13:32:28;;;;;;;5.73;3.50;;;13.80;99.90;;;;;;4122885;34;20210;-63
2021/09/21 13:35:11;;;;;;;6.63;3.70;;;13.60;99.90;;;;;;4114731;34;20162;-62
2021/09/21 13:38:10;;;;;;;8.10;3.83;;;13.50;99.90;;;;;;4085345;35;20237;-64
2021/09/21 13:41:23;;;;;;;6.03;3.97;;;13.60;99.90;;;;;;4095837;35;20266;-62
2021/09/21 13:44:18;;;;;;;9.70;4.13;;;13.50;99.90;;;;;;4097036;35;20351;-63
2021/09/21 13:47:19;;;;;;;7.97;3.67;;;13.40;99.90;;;;;;4090066;35;20248;-62
2021/09/21 13:50:10;;;;;;;8.37;4.30;;;13.30;99.90;;;;;;4085869;35;20214;-63
2021/09/21 13:52:39;;;;;;;6.27;3.90;;;13.30;99.90;;;;;;4084399;35;20675;-64
2021/09/21 13:55:09;;;;;;;7.40;3.50;;;13.30;99.90;;;;;;4085384;35;20242;-63
2021/09/21 13:57:45;;;;;;;4.33;3.40;;;13.50;99.90;;;;;;4095893;34;20241;-64
2021/09/21 14:00:34;;;;;;;6.20;3.70;;;13.50;99.90;;;;;;4123333;34;20218;-63
2021/09/21 14:03:20;;;;;;;5.90;3.60;;;13.40;99.90;;;;;;4113400;34;20243;-64
2021/09/21 14:06:13;;;;;;;5.80;3.53;;;13.50;99.90;;;;;;4161753;34;20431;-62
2021/09/21 14:08:52;;;;;;;5.67;3.53;;;13.30;99.90;;;;;;4154443;34;20224;-61
2021/09/21 14:11:41;;;;;;;7.43;4.27;;;13.20;99.90;;;;;;4163353;34;20181;-62
2021/09/21 14:14:23;;;;;;;5.30;3.50;;;13.30;99.90;;;;;;4170437;34;20148;-61
2021/09/21 14:17:05;;;;;;;7.03;3.53;;;13.40;99.90;;;;;;4190495;34;20573;-62
2021/09/21 14:19:44;;;;;;;7.17;3.50;;;13.50;99.90;;;;;;4189745;34;20433;-61
2021/09/21 14:22:33;;;;;;;10.67;3.73;;;13.60;99.90;;;;;;4192106;34;20166;-63
2021/09/21 14:25:23;;;;;;;5.17;3.17;;;13.60;99.90;;;;;;4182310;34;20495;-61
2021/09/21 14:28:11;;;;;;;6.83;3.40;;;13.50;99.90;;;;;;4191006;34;20227;-63
2021/09/21 14:31:01;;;;;;;8.43;3.50;;;13.50;99.90;;;;;;4182146;34;20236;-62
2021/09/21 14:33:41;;;;;;;5.60;3.30;;;13.50;99.90;;;;;;4191087;34;20167;-61
2021/09/21 14:36:25;;;;;;;5.53;3.70;;;13.60;99.90;;;;;;4192619;34;20180;-62
2021/09/21 14:39:18;;;;;;;6.43;3.57;;;13.60;99.90;;;;;;4177081;34;20183;-63
2021/09/21 14:42:06;;;;;;;6.13;3.30;;;13.50;99.90;;;;;;4177889;34;20588;-63
2021/09/21 14:44:36;;;;;;;5.57;3.30;;;13.40;99.90;;;;;;4176555;34;20196;-63
2021/09/21 14:47:10;;;;;;;5.37;3.43;;;13.40;99.90;;;;;;4176891;34;20204;-64
2021/09/21 14:49:56;;;;;;;7.33;3.73;;;13.40;99.90;;;;;;4177100;34;20211;-64
2021/09/21 14:52:46;;;;;;;5.47;3.43;;;13.20;99.90;;;;;;4176616;34;20520;-63
2021/09/21 14:55:17;;;;;;;8.23;3.50;;;13.10;99.90;;;;;;4178408;34;20171;-64
2021/09/21 14:58:04;;;;;;;6.13;3.57;;;13.20;99.90;;;;;;4177652;34;20198;-64
2021/09/21 15:00:51;;;;;;;7.60;3.70;;;13.20;99.90;;;;;;4167214;34;20200;-64
2021/09/21 15:03:42;;;;;;;7.90;3.57;;;13.20;99.90;;;;;;4178264;34;20161;-63
2021/09/21 15:06:51;;;;;;;6.47;3.47;;;13.20;99.90;;;;;;4178221;34;20156;-63
2021/09/21 15:09:42;;;;;;;9.07;3.83;;;13.20;99.90;;;;;;4178174;34;20165;-63
2021/09/21 15:12:27;;;;;;;5.77;3.60;;;13.20;99.90;;;;;;4178093;34;20508;-63
2021/09/21 15:15:12;;;;;;;6.07;3.60;;;13.10;99.90;;;;;;4177404;34;20164;-62
2021/09/21 15:17:46;;;;;;;7.50;3.67;;;13.10;99.90;;;;;;4191894;34;20160;-62